Time;durP1;ratioP1;P1;durP2;ratioP2;P2;SDS_P1;SDS_P2;PMS_P1;PMS_P2;Temp;Humidity;BMP_temperature;BMP_pressure;BME280_temperature;BME280_humidity;BME280_pressure;Samples;Min_cycle;Max_cycle;Signal;HPM_P1;HPM_P2
2022/07/11 00:01:07;;;;;;;10.20;2.90;;;;;;;17.81;56.99;101758.19;4944194;28;123658;-83
2022/07/11 00:03:33;;;;;;;11.93;3.17;;;;;;;17.71;56.75;101749.91;4943599;28;120479;-82
2022/07/11 00:05:58;;;;;;;11.70;3.27;;;;;;;17.73;57.09;101752.22;4962739;28;119829;-82
2022/07/11 00:08:24;;;;;;;9.18;3.00;;;;;;;17.68;56.88;101755.66;4953494;28;122591;-83
2022/07/11 00:10:50;;;;;;;9.38;3.20;;;;;;;17.66;57.36;101756.09;4963647;28;121515;-83
2022/07/11 00:13:15;;;;;;;7.38;2.63;;;;;;;17.63;56.84;101745.94;4964147;28;119998;-83
2022/07/11 00:15:41;;;;;;;11.38;2.83;;;;;;;17.70;57.48;101758.72;4943611;28;119920;-82
2022/07/11 00:18:06;;;;;;;10.05;2.88;;;;;;;17.73;57.61;101758.53;4943383;28;121304;-83
2022/07/11 00:20:32;;;;;;;9.13;3.10;;;;;;;17.69;57.30;101746.84;4930093;28;121115;-83
2022/07/11 00:22:58;;;;;;;11.33;2.67;;;;;;;17.78;57.79;101751.56;4968226;28;120747;-83
2022/07/11 00:25:23;;;;;;;9.10;2.57;;;;;;;17.82;57.95;101751.38;4941717;28;122232;-83
2022/07/11 00:27:49;;;;;;;9.53;2.60;;;;;;;17.86;58.15;101751.97;4948635;28;123916;-83
2022/07/11 00:30:16;;;;;;;9.05;2.30;;;;;;;17.79;57.68;101728.13;4944393;28;121738;-83
2022/07/11 00:32:41;;;;;;;10.23;2.85;;;;;;;17.85;57.28;101742.88;4956858;28;124130;-83
2022/07/11 00:35:07;;;;;;;10.43;2.97;;;;;;;17.89;57.29;101742.69;4933080;28;119828;-82
2022/07/11 00:37:33;;;;;;;8.25;2.38;;;;;;;17.89;57.53;101745.47;4944324;28;122316;-83
2022/07/11 00:39:59;;;;;;;10.37;2.70;;;;;;;17.87;57.17;101745.94;4957258;28;120063;-83
2022/07/11 00:42:25;;;;;;;11.50;3.03;;;;;;;17.86;57.26;101754.75;4965562;28;119766;-83
2022/07/11 00:44:51;;;;;;;7.63;3.00;;;;;;;17.90;56.54;101766.44;4965185;28;119889;-83
2022/07/11 00:47:17;;;;;;;9.32;2.95;;;;;;;17.85;56.76;101761.53;4942090;28;121811;-83
2022/07/11 00:49:44;;;;;;;10.35;3.40;;;;;;;17.83;56.92;101756.47;4966951;28;120782;-83
2022/07/11 00:52:10;;;;;;;9.50;3.20;;;;;;;17.70;56.97;101744.84;4959042;28;122809;-83
2022/07/11 00:54:36;;;;;;;8.80;3.20;;;;;;;17.78;56.70;101760.66;4961452;28;120516;-84
2022/07/11 00:57:04;;;;;;;7.38;3.08;;;;;;;17.75;56.89;101767.16;4962901;28;122436;-83
2022/07/11 00:59:30;;;;;;;7.03;3.20;;;;;;;17.70;57.07;101759.47;4954085;28;123302;-83
2022/07/11 01:01:56;;;;;;;7.03;3.38;;;;;;;17.66;56.53;101749.78;4959394;28;120369;-83
2022/07/11 01:04:22;;;;;;;9.27;3.23;;;;;;;17.62;56.94;101763.81;4936853;28;121660;-83
2022/07/11 01:06:48;;;;;;;8.27;2.80;;;;;;;17.63;55.74;101753.50;4950401;28;123243;-83
2022/07/11 01:09:13;;;;;;;7.63;3.30;;;;;;;17.59;56.29;101755.69;4946640;28;120071;-83
2022/07/11 01:11:39;;;;;;;6.30;2.72;;;;;;;17.51;55.68;101752.50;4955644;28;121838;-83
2022/07/11 01:14:05;;;;;;;8.20;3.10;;;;;;;17.46;55.52;101761.47;4960481;28;119897;-83
2022/07/11 01:16:30;;;;;;;9.70;3.45;;;;;;;17.31;55.91;101744.00;4962225;28;122047;-83
2022/07/11 01:18:56;;;;;;;6.95;3.03;;;;;;;17.27;56.58;101748.94;4962367;28;120645;-83
2022/07/11 01:21:35;;;;;;;9.07;3.10;;;;;;;17.33;56.92;101752.63;4950874;28;120288;-83
2022/07/11 01:24:02;;;;;;;7.55;3.33;;;;;;;17.33;56.99;101758.16;4943587;28;120225;-83
2022/07/11 01:26:28;;;;;;;10.07;3.28;;;;;;;17.27;56.54;101748.94;4940578;28;122053;-82
2022/07/11 01:28:59;;;;;;;10.90;3.60;;;;;;;17.29;56.25;101761.13;4943746;28;122927;-83
2022/07/11 01:31:26;;;;;;;7.07;2.85;;;;;;;17.20;55.93;101744.53;4954700;28;120029;-82
2022/07/11 01:33:52;;;;;;;8.82;3.08;;;;;;;17.19;56.50;101760.38;4942856;28;123720;-83
2022/07/11 01:36:18;;;;;;;7.18;3.00;;;;;;;17.15;56.32;101759.78;4954185;28;122096;-83
2022/07/11 01:38:43;;;;;;;7.75;2.90;;;;;;;17.09;56.28;101750.59;4939526;28;121218;-83
2022/07/11 01:41:09;;;;;;;6.40;2.80;;;;;;;17.08;56.41;101751.06;4956558;28;120052;-83
2022/07/11 01:43:35;;;;;;;7.13;2.60;;;;;;;17.02;56.56;101745.38;4962390;28;122137;-83
2022/07/11 01:46:01;;;;;;;7.00;2.50;;;;;;;17.07;56.85;101747.53;4943175;28;122744;-83
2022/07/11 01:48:29;;;;;;;5.77;2.50;;;;;;;17.00;56.54;101739.53;4925789;28;119606;-83
2022/07/11 01:50:54;;;;;;;7.27;2.77;;;;;;;17.01;56.56;101748.63;4968658;28;122446;-83
2022/07/11 01:53:20;;;;;;;9.63;3.13;;;;;;;16.96;56.50;101732.63;4950736;28;123035;-83
2022/07/11 01:55:46;;;;;;;5.50;2.63;;;;;;;16.99;56.58;101751.09;4966320;28;120286;-83
2022/07/11 01:58:18;;;;;;;8.20;2.37;;;;;;;16.95;56.74;101733.88;4943091;28;121712;-83
2022/07/11 02:00:43;;;;;;;6.00;2.67;;;;;;;16.99;56.41;101754.63;4940054;28;119839;-83
2022/07/11 02:03:09;;;;;;;5.93;2.50;;;;;;;16.96;55.99;101752.03;4940059;28;121699;-83
2022/07/11 02:05:38;;;;;;;5.05;2.40;;;;;;;16.87;55.23;101753.63;4955531;28;120131;-84
2022/07/11 02:08:12;;;;;;;8.60;2.85;;;;;;;16.88;55.46;101754.38;4940107;28;120377;-83
2022/07/11 02:10:49;;;;;;;5.20;2.60;;;;;;;16.79;55.71;101752.41;4956587;28;121688;-83
2022/07/11 02:13:18;;;;;;;6.75;2.80;;;;;;;16.84;56.51;101756.56;4956577;28;120601;-83
2022/07/11 02:15:45;;;;;;;6.10;2.47;;;;;;;16.83;56.75;101755.78;4939272;28;120079;-83
2022/07/11 02:18:12;;;;;;;5.05;2.65;;;;;;;16.77;56.83;101735.47;4959814;28;122065;-83
2022/07/11 02:20:58;;;;;;;8.17;2.63;;;;;;;16.81;56.06;101746.41;4939646;28;121444;-82
2022/07/11 02:23:24;;;;;;;5.97;2.60;;;;;;;16.73;56.15;101739.66;4940052;28;121871;-83
2022/07/11 02:25:49;;;;;;;9.23;2.73;;;;;;;16.72;56.55;101743.66;4954445;28;121065;-83
2022/07/11 02:28:15;;;;;;;5.93;2.80;;;;;;;16.72;56.97;101746.44;4954635;28;120354;-83
2022/07/11 02:30:43;;;;;;;5.47;2.27;;;;;;;16.72;56.56;101749.97;4938313;28;121825;-83
2022/07/11 02:33:16;;;;;;;6.53;2.60;;;;;;;16.79;56.71;101757.16;4939238;28;123880;-83
2022/07/11 02:35:43;;;;;;;6.60;2.28;;;;;;;16.77;56.39;101745.78;4955130;28;121303;-83
2022/07/11 02:38:09;;;;;;;5.57;2.60;;;;;;;16.83;56.66;101752.25;4943471;28;122630;-83
2022/07/11 02:40:35;;;;;;;7.75;2.50;;;;;;;16.78;55.86;101753.63;4940665;28;121325;-83
2022/07/11 02:43:01;;;;;;;6.00;2.43;;;;;;;16.72;55.60;101749.97;4938961;28;122534;-83
2022/07/11 02:45:26;;;;;;;7.17;2.30;;;;;;;16.68;56.53;101743.06;4935011;28;123172;-83
2022/07/11 02:47:52;;;;;;;5.53;2.40;;;;;;;16.68;56.19;101743.06;4937129;28;119941;-83
2022/07/11 02:50:18;;;;;;;4.63;2.47;;;;;;;16.74;56.94;101750.25;4948989;28;120130;-84
2022/07/11 02:52:43;;;;;;;6.47;2.92;;;;;;;16.80;56.94;101759.50;4944494;28;124597;-83
2022/07/11 02:55:10;;;;;;;5.53;2.55;;;;;;;16.83;57.91;101766.88;4953256;28;119487;-83
2022/07/11 02:57:42;;;;;;;5.73;2.63;;;;;;;16.80;57.93;101761.50;4935988;28;122681;-83
2022/07/11 03:00:15;;;;;;;7.68;2.70;;;;;;;16.90;57.64;101768.53;4974747;28;120260;-83
2022/07/11 03:02:50;;;;;;;6.80;3.00;;;;;;;16.86;57.36;101759.63;4954823;28;122536;-82
2022/07/11 03:05:16;;;;;;;6.03;2.50;;;;;;;16.88;57.51;101762.69;4952825;28;123253;-83
2022/07/11 03:07:42;;;;;;;6.65;2.70;;;;;;;16.91;57.40;101761.75;4951249;28;119813;-83
2022/07/11 03:10:08;;;;;;;7.07;3.00;;;;;;;16.98;57.32;101778.03;4971336;28;120459;-83
2022/07/11 03:12:38;;;;;;;6.05;2.97;;;;;;;16.99;57.82;101767.72;4953864;28;120072;-83
2022/07/11 03:15:05;;;;;;;7.22;2.90;;;;;;;17.00;58.04;101767.25;4949561;28;120155;-83
2022/07/11 03:17:30;;;;;;;4.93;2.70;;;;;;;17.04;58.52;101770.66;4952278;28;122513;-83
2022/07/11 03:19:56;;;;;;;5.85;3.03;;;;;;;17.01;57.68;101757.69;4969454;28;122659;-83
2022/07/11 03:22:23;;;;;;;8.35;3.17;;;;;;;17.09;57.90;101769.22;4975421;28;119896;-83
2022/07/11 03:24:50;;;;;;;7.95;2.80;;;;;;;17.14;57.81;101769.34;4943725;28;123051;-83
2022/07/11 03:27:16;;;;;;;7.13;3.10;;;;;;;17.10;57.87;101762.44;4936778;28;120513;-82
2022/07/11 03:29:42;;;;;;;6.53;3.20;;;;;;;17.10;57.95;101763.22;4970005;28;119912;-82
2022/07/11 03:32:09;;;;;;;6.40;2.97;;;;;;;17.13;57.71;101761.50;4953535;28;123139;-82
2022/07/11 03:34:34;;;;;;;7.68;3.20;;;;;;;17.11;57.66;101764.75;4948487;28;120920;-83
2022/07/11 03:37:00;;;;;;;6.18;2.85;;;;;;;17.20;57.73;101777.78;4950516;28;120344;-82
2022/07/11 03:39:26;;;;;;;10.02;3.60;;;;;;;17.16;58.02;101766.09;4933451;28;122772;-83
2022/07/11 03:41:55;;;;;;;7.35;3.17;;;;;;;17.22;57.48;101775.31;4952295;28;119931;-82
2022/07/11 03:44:20;;;;;;;8.07;3.22;;;;;;;17.25;57.72;101779.16;4972153;28;120051;-82
2022/07/11 03:46:46;;;;;;;6.72;3.30;;;;;;;17.25;58.16;101774.38;4946741;28;119721;-82
2022/07/11 03:49:12;;;;;;;8.48;3.30;;;;;;;17.22;58.22;101761.44;4932475;28;122208;-83
2022/07/11 03:51:37;;;;;;;8.20;3.42;;;;;;;17.25;58.28;101763.28;4945731;28;122875;-83
2022/07/11 03:54:03;;;;;;;8.65;3.88;;;;;;;17.29;57.47;101763.13;4944291;28;119892;-83
2022/07/11 03:56:29;;;;;;;8.75;3.63;;;;;;;17.19;57.99;101749.28;4942158;28;120184;-83
2022/07/11 03:58:54;;;;;;;9.65;3.55;;;;;;;17.20;58.35;101755.59;4963898;28;123645;-83
2022/07/11 04:01:23;;;;;;;9.18;3.75;;;;;;;17.24;58.56;101767.28;4942830;28;119737;-83
2022/07/11 04:03:52;;;;;;;7.50;3.63;;;;;;;17.23;58.65;101760.22;4953068;28;121893;-83
2022/07/11 04:06:17;;;;;;;6.30;3.27;;;;;;;17.23;58.63;101748.34;4947753;28;122674;-83
2022/07/11 04:08:43;;;;;;;6.67;3.50;;;;;;;17.35;58.42;101764.78;4932059;28;121852;-83
2022/07/11 04:11:09;;;;;;;7.30;3.57;;;;;;;17.38;58.59;101758.28;4941652;28;122843;-83
2022/07/11 04:13:34;;;;;;;5.77;3.50;;;;;;;17.47;58.80;101763.00;4946648;28;119714;-83
2022/07/11 04:16:00;;;;;;;8.73;3.60;;;;;;;17.52;58.64;101756.81;4963113;28;119772;-83
2022/07/11 04:18:26;;;;;;;7.27;3.53;;;;;;;17.65;58.73;101771.19;4929007;28;123188;-81
2022/07/11 04:20:52;;;;;;;7.35;3.75;;;;;;;17.68;58.67;101761.97;4945485;28;119815;-83
2022/07/11 04:23:18;;;;;;;6.97;3.35;;;;;;;17.72;58.73;101762.53;4936293;28;121973;-82
2022/07/11 04:25:47;;;;;;;7.57;3.90;;;;;;;17.82;58.70;101762.50;4933302;28;122620;-83
2022/07/11 04:28:12;;;;;;;8.60;4.10;;;;;;;17.83;58.83;101756.47;4953923;28;120105;-83
2022/07/11 04:30:38;;;;;;;9.52;4.53;;;;;;;17.85;58.77;101748.44;4952026;28;123288;-82
2022/07/11 04:33:03;;;;;;;9.52;3.83;;;;;;;17.90;58.65;101752.53;4949688;28;120141;-83
2022/07/11 04:35:30;;;;;;;7.63;3.95;;;;;;;17.85;58.61;101744.88;4940664;28;121680;-83
2022/07/11 04:37:57;;;;;;;7.55;4.15;;;;;;;17.93;58.54;101754.38;4949454;28;120005;-83
2022/07/11 04:40:23;;;;;;;8.37;4.30;;;;;;;18.00;58.73;101748.47;4950454;28;120247;-83
2022/07/11 04:42:50;;;;;;;9.25;4.32;;;;;;;18.00;58.47;101749.22;4950090;28;122197;-82
2022/07/11 04:45:16;;;;;;;9.68;4.30;;;;;;;18.04;58.32;101760.91;4935823;28;123178;-82
2022/07/11 04:47:41;;;;;;;10.45;4.60;;;;;;;18.07;58.88;101762.72;4940208;28;119547;-83
2022/07/11 04:50:08;;;;;;;7.80;4.57;;;;;;;18.13;59.41;101767.63;4948495;28;123003;-83
2022/07/11 04:52:34;;;;;;;9.43;4.60;;;;;;;18.14;59.11;101763.59;4936636;28;119685;-83
2022/07/11 04:54:59;;;;;;;11.02;4.72;;;;;;;18.19;59.00;101765.69;4950033;28;119844;-83
2022/07/11 04:57:26;;;;;;;7.28;4.30;;;;;;;18.19;59.87;101758.13;4932882;28;121747;-82
2022/07/11 04:59:52;;;;;;;10.77;4.65;;;;;;;18.21;59.84;101758.41;4964619;28;119593;-82
2022/07/11 05:02:21;;;;;;;7.80;4.07;;;;;;;18.30;59.70;101746.47;4952417;28;122266;-83
2022/07/11 05:04:46;;;;;;;6.18;3.80;;;;;;;18.39;60.00;101763.03;4951396;28;121423;-82
2022/07/11 05:07:15;;;;;;;7.13;3.60;;;;;;;18.40;60.32;101748.66;4968384;28;120201;-83
2022/07/11 05:09:41;;;;;;;8.68;3.60;;;;;;;18.46;60.16;101753.56;4940398;28;122746;-83
2022/07/11 05:12:09;;;;;;;8.18;3.47;;;;;;;18.51;60.01;101752.91;4953391;28;120438;-83
2022/07/11 05:14:35;;;;;;;9.37;3.20;;;;;;;18.61;60.17;101759.88;4958575;28;122094;-83
2022/07/11 05:17:00;;;;;;;7.43;3.03;;;;;;;18.64;60.57;101761.72;4935659;28;124056;-83
2022/07/11 05:19:26;;;;;;;7.47;2.90;;;;;;;18.65;60.52;101746.56;4951152;28;119736;-83
2022/07/11 05:21:52;;;;;;;7.22;2.88;;;;;;;18.73;60.45;101763.66;4931028;28;121897;-83
2022/07/11 05:24:18;;;;;;;6.03;2.45;;;;;;;18.71;60.07;101755.78;4967643;28;123296;-83
2022/07/11 05:26:44;;;;;;;9.73;2.70;;;;;;;18.79;60.36;101764.50;4946577;28;119562;-82
2022/07/11 05:29:10;;;;;;;9.75;2.67;;;;;;;18.87;60.77;101769.16;4965792;28;120594;-83
2022/07/11 05:31:36;;;;;;;7.60;2.60;;;;;;;18.90;60.73;101773.00;4959927;28;123297;-82
2022/07/11 05:34:02;;;;;;;6.23;2.30;;;;;;;18.96;61.15;101777.41;4955516;28;121910;-83
2022/07/11 05:36:27;;;;;;;4.83;2.40;;;;;;;19.08;60.72;101786.69;4966188;28;123405;-82
2022/07/11 05:38:53;;;;;;;8.10;2.30;;;;;;;19.01;60.11;101770.41;4968205;28;119729;-82
2022/07/11 05:41:19;;;;;;;8.67;2.47;;;;;;;19.12;60.54;101769.78;4959549;28;121890;-82
2022/07/11 05:43:44;;;;;;;6.57;2.40;;;;;;;19.20;60.38;101784.84;4935218;28;122223;-82
2022/07/11 05:46:10;;;;;;;6.28;2.45;;;;;;;19.22;60.72;101790.69;4951951;28;120899;-82
2022/07/11 05:48:35;;;;;;;5.65;2.25;;;;;;;19.25;60.79;101787.69;4967786;28;122239;-82
2022/07/11 05:51:01;;;;;;;5.40;2.40;;;;;;;19.35;60.12;101795.91;4943459;28;122712;-82
2022/07/11 05:53:27;;;;;;;7.07;2.10;;;;;;;19.33;59.54;101777.69;4957101;28;119850;-82
2022/07/11 05:55:52;;;;;;;4.80;2.10;;;;;;;19.38;60.33;101781.03;4951784;28;122814;-82
2022/07/11 05:58:18;;;;;;;4.13;2.13;;;;;;;19.48;59.79;101785.97;4968825;28;120039;-81
2022/07/11 06:00:43;;;;;;;6.20;2.20;;;;;;;19.48;59.95;101783.19;4968101;28;119798;-82
2022/07/11 06:03:09;;;;;;;5.75;2.22;;;;;;;19.38;59.29;101769.88;4934493;28;123320;-82
2022/07/11 06:05:35;;;;;;;4.10;1.77;;;;;;;19.52;59.44;101789.31;4947139;28;120329;-82
2022/07/11 06:10:44;;;;;;;7.10;2.10;;;;;;;19.56;59.79;101795.47;4932300;28;121376;-82
2022/07/11 06:13:10;;;;;;;5.50;2.10;;;;;;;19.51;60.30;101771.09;4932682;28;119593;-82
2022/07/11 06:15:36;;;;;;;6.13;2.00;;;;;;;19.56;59.56;101773.22;4970958;28;121587;-82
2022/07/11 06:18:23;;;;;;;5.95;2.13;;;;;;;19.63;60.68;101769.22;4940826;28;120059;-82
2022/07/11 06:20:49;;;;;;;5.82;2.00;;;;;;;19.76;60.34;101782.81;4930143;28;122469;-82
2022/07/11 06:23:15;;;;;;;4.93;1.80;;;;;;;19.73;59.66;101767.09;4954088;28;123010;-82
2022/07/11 06:25:43;;;;;;;5.60;1.80;;;;;;;19.77;59.92;101771.19;4930364;28;119956;-82
2022/07/11 06:28:09;;;;;;;4.77;1.50;;;;;;;19.82;59.44;101784.41;4937343;28;122165;-81
2022/07/11 06:30:36;;;;;;;6.13;1.90;;;;;;;19.83;59.55;101785.94;4912963;28;123852;-82
2022/07/11 06:33:03;;;;;;;3.73;1.70;;;;;;;19.85;59.62;101783.41;4921856;28;120192;-82
2022/07/11 06:35:29;;;;;;;4.00;1.75;;;;;;;19.89;60.00;101780.44;4913023;28;122363;-82
2022/07/11 06:37:56;;;;;;;4.72;1.70;;;;;;;19.95;59.38;101786.84;4917868;28;119717;-82
2022/07/11 06:40:23;;;;;;;7.18;1.92;;;;;;;19.99;59.17;101792.19;4913887;28;122346;-82
2022/07/11 06:42:49;;;;;;;5.88;1.90;;;;;;;20.03;59.95;101790.72;4917443;28;123131;-83
2022/07/11 06:45:15;;;;;;;5.50;2.10;;;;;;;20.15;59.27;101795.16;4927547;28;120713;-82
2022/07/11 06:47:42;;;;;;;7.50;1.70;;;;;;;20.21;58.72;101792.44;4934191;28;119721;-82
2022/07/11 06:50:08;;;;;;;5.07;1.50;;;;;;;20.21;58.70;101779.28;4927231;28;122526;-83
2022/07/11 06:52:34;;;;;;;5.20;1.63;;;;;;;20.31;57.46;101777.06;4911689;28;120032;-83
2022/07/11 06:54:59;;;;;;;4.87;1.63;;;;;;;20.44;58.93;101782.31;4930002;28;119995;-83
2022/07/11 06:57:25;;;;;;;4.27;1.40;;;;;;;20.50;58.05;101785.91;4931715;28;123112;-82
2022/07/11 06:59:51;;;;;;;5.17;1.53;;;;;;;20.54;58.29;101781.63;4964172;28;119665;-82
2022/07/11 07:02:16;;;;;;;3.90;1.60;;;;;;;20.53;57.91;101774.53;4917835;28;122683;-83
2022/07/11 07:04:42;;;;;;;5.53;1.60;;;;;;;20.57;57.84;101785.44;4961018;28;120067;-83
2022/07/11 07:07:07;;;;;;;3.83;1.40;;;;;;;20.51;57.10;101776.28;4962834;28;120289;-82
2022/07/11 07:09:33;;;;;;;5.17;1.80;;;;;;;20.55;57.35;101782.38;4948677;28;122702;-82
2022/07/11 07:11:58;;;;;;;5.00;1.60;;;;;;;20.56;57.00;101786.69;4944313;28;120288;-82
2022/07/11 07:14:25;;;;;;;4.80;1.65;;;;;;;20.62;56.61;101801.47;4937528;28;121838;-82
2022/07/11 07:16:50;;;;;;;4.10;1.40;;;;;;;20.53;56.11;101796.81;4959251;28;123170;-82
2022/07/11 07:19:18;;;;;;;4.38;1.60;;;;;;;20.56;56.40;101806.22;4933936;28;119997;-83
2022/07/11 07:21:44;;;;;;;3.93;1.40;;;;;;;20.60;56.19;101808.81;4948207;28;122492;-83
2022/07/11 07:24:10;;;;;;;4.70;1.40;;;;;;;20.65;55.35;101817.22;4930135;28;119854;-83
2022/07/11 07:26:35;;;;;;;4.03;1.47;;;;;;;20.68;55.33;101807.84;4957438;28;119595;-82
2022/07/11 07:29:04;;;;;;;3.58;1.67;;;;;;;20.69;56.70;101806.59;4926309;28;121350;-83
2022/07/11 07:31:29;;;;;;;3.83;1.60;;;;;;;20.80;57.03;101812.25;4958510;28;119903;-82
2022/07/11 07:33:58;;;;;;;4.32;1.45;;;;;;;20.84;54.83;101812.06;4951173;28;122592;-83
2022/07/11 07:36:23;;;;;;;5.55;1.50;;;;;;;20.85;55.82;101802.44;4931565;28;122822;-83
2022/07/11 07:38:49;;;;;;;3.30;1.50;;;;;;;20.90;55.73;101812.84;4966016;28;120141;-83
2022/07/11 07:41:15;;;;;;;6.10;1.73;;;;;;;20.90;53.37;101809.31;4935690;28;121822;-82
2022/07/11 07:43:41;;;;;;;4.22;1.60;;;;;;;20.93;54.37;101817.44;4947682;28;122014;-83
2022/07/11 07:46:10;;;;;;;4.97;1.60;;;;;;;20.96;54.97;101810.09;4937667;28;121792;-83
2022/07/11 07:48:36;;;;;;;4.47;1.30;;;;;;;20.96;53.62;101821.25;4957593;28;123388;-83
2022/07/11 07:51:03;;;;;;;4.97;1.70;;;;;;;20.86;52.65;101806.75;4966321;28;121565;-82
2022/07/11 07:53:29;;;;;;;4.00;1.30;;;;;;;20.91;52.88;101806.00;4961201;28;121987;-83
2022/07/11 07:55:54;;;;;;;4.80;1.50;;;;;;;20.91;53.47;101789.28;4941652;28;123306;-83
2022/07/11 07:58:20;;;;;;;5.03;1.20;;;;;;;21.07;53.23;101807.41;4960710;28;120854;-83
2022/07/11 08:03:31;;;;;;;4.32;1.42;;;;;;;21.27;53.98;101801.72;4964222;28;120041;-83
2022/07/11 08:05:56;;;;;;;3.93;1.33;;;;;;;21.36;54.19;101795.19;4976220;28;119957;-83
2022/07/11 08:08:22;;;;;;;3.33;1.30;;;;;;;21.37;54.15;101786.31;4958888;28;120622;-83
2022/07/11 08:10:48;;;;;;;3.60;1.30;;;;;;;21.49;54.31;101803.88;4946434;28;120401;-84
2022/07/11 08:13:14;;;;;;;2.70;1.30;;;;;;;21.63;53.98;101807.75;4934559;28;121832;-83
2022/07/11 08:15:39;;;;;;;4.10;1.30;;;;;;;21.74;51.39;101810.59;4947149;28;122828;-83
2022/07/11 08:18:05;;;;;;;4.90;1.23;;;;;;;21.84;51.54;101805.56;4941298;28;120923;-83
2022/07/11 08:20:30;;;;;;;4.32;1.27;;;;;;;21.95;49.08;101802.78;4959158;28;121728;-83
2022/07/11 08:23:00;;;;;;;3.72;1.50;;;;;;;22.05;51.31;101796.50;4923687;28;124222;-82
2022/07/11 08:25:26;;;;;;;4.50;1.25;;;;;;;22.14;50.41;101811.50;4947222;28;120188;-83
2022/07/11 08:27:52;;;;;;;3.60;1.20;;;;;;;22.07;50.71;101801.59;4946512;28;123169;-83
2022/07/11 08:30:18;;;;;;;3.20;1.27;;;;;;;22.04;51.17;101816.56;4965089;28;120172;-83
2022/07/11 08:32:44;;;;;;;3.47;1.35;;;;;;;22.07;51.74;101814.81;4964716;28;120040;-83
2022/07/11 08:35:11;;;;;;;3.38;1.20;;;;;;;22.04;52.01;101795.00;4957649;28;123609;-83
2022/07/11 08:37:36;;;;;;;4.30;1.27;;;;;;;22.25;51.68;101815.13;4945100;28;120609;-83
2022/07/11 08:40:03;;;;;;;2.97;1.30;;;;;;;22.36;51.78;101820.72;4946079;28;120586;-83
2022/07/11 08:42:32;;;;;;;2.38;1.30;;;;;;;22.37;50.16;101813.09;4945613;28;123112;-84
2022/07/11 08:44:59;;;;;;;3.05;1.27;;;;;;;22.37;49.12;101810.28;4964261;28;120026;-83
2022/07/11 08:47:24;;;;;;;4.15;1.45;;;;;;;22.47;51.04;101808.00;4925597;28;123147;-84
2022/07/11 08:49:52;;;;;;;4.82;1.33;;;;;;;22.58;49.76;101813.63;4943514;28;120305;-84
2022/07/11 08:52:19;;;;;;;3.95;1.30;;;;;;;22.66;50.27;101812.59;4946172;28;122604;-83
2022/07/11 08:54:45;;;;;;;3.72;1.35;;;;;;;22.76;51.04;101809.56;4927326;28;124057;-83
2022/07/11 08:57:12;;;;;;;3.33;1.15;;;;;;;22.88;50.81;101808.31;4951275;28;120896;-83
2022/07/11 08:59:41;;;;;;;5.07;1.25;;;;;;;22.93;48.67;101799.13;4972848;28;120161;-84
2022/07/11 09:02:09;;;;;;;3.45;1.30;;;;;;;22.99;50.07;101813.91;4958230;28;120228;-83
2022/07/11 09:04:34;;;;;;;2.90;1.20;;;;;;;22.93;49.73;101813.13;4958494;28;120973;-83
2022/07/11 09:07:01;;;;;;;3.53;1.30;;;;;;;22.85;50.20;101815.69;4960321;28;122021;-84
2022/07/11 09:09:28;;;;;;;2.83;1.40;;;;;;;22.86;50.63;101814.41;4959409;28;120426;-84
2022/07/11 09:11:57;;;;;;;2.47;1.20;;;;;;;22.82;51.02;101810.34;4944682;28;123151;-83
2022/07/11 09:14:25;;;;;;;2.92;1.35;;;;;;;22.87;51.19;101803.97;4929765;28;123594;-83
2022/07/11 09:16:54;;;;;;;3.75;1.35;;;;;;;22.94;47.57;101811.84;4962885;28;119859;-84
2022/07/11 09:19:32;;;;;;;3.38;1.13;;;;;;;22.96;50.00;101812.13;4924444;28;123479;-83
2022/07/11 09:27:47;;;;;;;3.70;1.47;;;;;;;23.25;50.13;101810.81;4957435;28;123404;-84
2022/07/11 09:30:19;;;;;;;2.63;1.40;;;;;;;23.27;49.51;101803.44;4932888;28;123502;-83
2022/07/11 09:32:59;;;;;;;4.28;1.40;;;;;;;23.36;49.21;101807.22;4957758;28;120560;-83
2022/07/11 09:35:45;;;;;;;3.55;1.20;;;;;;;23.43;48.60;101812.31;4928081;28;122514;-83
2022/07/11 09:38:13;;;;;;;3.67;1.55;;;;;;;23.42;47.47;101807.94;4960952;28;120057;-83
2022/07/11 09:40:43;;;;;;;2.40;1.20;;;;;;;23.41;49.37;101815.59;4945308;28;120670;-83
2022/07/11 09:43:09;;;;;;;3.08;1.30;;;;;;;23.41;47.66;101818.38;4925284;28;124948;-83
2022/07/11 09:45:35;;;;;;;3.05;1.27;;;;;;;23.39;48.45;101811.78;4958279;28;120288;-83
2022/07/11 09:48:10;;;;;;;2.75;1.40;;;;;;;23.37;48.82;101808.72;4940104;28;121675;-82
2022/07/11 09:50:37;;;;;;;3.35;1.40;;;;;;;23.40;48.65;101814.06;4953434;28;123527;-83
2022/07/11 09:53:07;;;;;;;3.10;1.20;;;;;;;23.46;47.88;101814.84;4963283;28;120616;-83
2022/07/11 09:55:41;;;;;;;1.83;1.10;;;;;;;23.47;48.56;101815.59;4940754;28;123457;-84
2022/07/11 09:58:08;;;;;;;2.33;1.00;;;;;;;23.48;48.02;101808.72;4956217;28;121299;-83
2022/07/11 10:00:38;;;;;;;3.20;1.20;;;;;;;23.53;48.31;101807.94;4956392;28;120555;-83
2022/07/11 10:03:05;;;;;;;3.83;1.23;;;;;;;23.50;46.96;101797.75;4931186;28;124211;-83
2022/07/11 10:05:32;;;;;;;2.10;1.17;;;;;;;23.54;48.18;101801.81;4953697;28;121282;-83
2022/07/11 10:07:59;;;;;;;26.05;3.70;;;;;;;23.55;48.09;101791.38;4937322;28;122155;-83
2022/07/11 10:10:26;;;;;;;3.73;1.20;;;;;;;23.60;48.63;101795.44;4952878;28;120573;-84
2022/07/11 10:12:55;;;;;;;2.70;1.27;;;;;;;23.56;49.14;101787.31;4953024;28;121467;-83
2022/07/11 10:15:23;;;;;;;3.75;1.23;;;;;;;23.59;48.99;101797.50;4944201;28;120590;-83
2022/07/11 10:18:11;;;;;;;3.03;1.20;;;;;;;23.61;47.41;101797.75;4941225;28;120232;-84
2022/07/11 10:20:51;;;;;;;3.17;1.10;;;;;;;23.57;47.14;101800.06;4955159;28;120700;-82
2022/07/11 10:23:20;;;;;;;1.45;0.90;;;;;;;23.58;46.07;101804.38;4956321;28;122871;-83
2022/07/11 10:25:48;;;;;;;2.95;1.10;;;;;;;23.59;47.06;101803.09;4939938;28;120346;-83
2022/07/11 10:28:23;;;;;;;2.15;1.00;;;;;;;23.61;46.23;101796.97;4938507;28;121726;-83
2022/07/11 10:30:59;;;;;;;2.57;1.10;;;;;;;23.61;47.45;101785.78;4949943;28;121841;-83
2022/07/11 10:33:27;;;;;;;1.77;1.00;;;;;;;23.60;48.19;101784.25;4925401;28;120331;-84
2022/07/11 10:35:53;;;;;;;3.17;1.20;;;;;;;23.61;46.92;101792.13;4918903;28;123179;-84
2022/07/11 10:38:25;;;;;;;2.42;1.10;;;;;;;23.62;47.92;101795.69;4950127;28;123211;-83
2022/07/11 10:40:55;;;;;;;2.07;1.10;;;;;;;23.65;48.31;101803.06;4955266;28;120841;-83
2022/07/11 10:43:30;;;;;;;3.63;1.20;;;;;;;23.65;47.61;101800.25;4926088;28;123897;-83
2022/07/11 10:46:19;;;;;;;2.78;1.40;;;;;;;23.67;47.55;101806.91;4963336;28;120115;-83
2022/07/11 10:48:58;;;;;;;2.28;1.30;;;;;;;23.63;47.41;101797.97;4940719;28;122626;-83
2022/07/11 10:51:33;;;;;;;3.58;1.20;;;;;;;23.60;48.24;101798.25;4956379;28;123137;-83
2022/07/11 10:54:12;;;;;;;1.77;0.88;;;;;;;23.68;47.20;101804.84;4945787;28;120211;-83
2022/07/11 10:56:52;;;;;;;2.83;0.90;;;;;;;23.71;47.92;101807.38;4959771;28;120617;-82
2022/07/11 11:00:09;;;;;;;2.03;1.00;;;;;;;23.76;47.30;101800.22;4875817;28;120847;-83
2022/07/11 11:03:12;;;;;;;3.00;0.98;;;;;;;23.79;47.71;101818.81;4868071;28;121052;-83
2022/07/11 11:05:56;;;;;;;1.80;0.95;;;;;;;23.75;47.31;101813.47;4859755;28;122610;-83
2022/07/11 11:08:36;;;;;;;2.28;0.90;;;;;;;23.76;46.16;101817.81;4879641;28;120158;-83
2022/07/11 11:11:06;;;;;;;1.90;1.00;;;;;;;23.77;45.45;101824.16;4853493;28;122872;-84
2022/07/11 11:13:35;;;;;;;2.85;1.20;;;;;;;23.72;45.01;101811.72;4852720;28;123337;-83
2022/07/11 11:16:24;;;;;;;3.00;1.00;;;;;;;23.79;46.46;101816.00;4854719;28;120479;-83
2022/07/11 11:18:50;;;;;;;2.35;1.00;;;;;;;23.76;47.35;101808.63;4849641;28;121144;-83
2022/07/11 11:21:20;;;;;;;2.88;0.98;;;;;;;23.82;47.39;101821.34;4873480;28;124720;-83
2022/07/11 11:24:05;;;;;;;2.42;1.00;;;;;;;23.74;47.29;101811.97;4891596;28;120530;-83
2022/07/11 11:26:47;;;;;;;2.30;0.93;;;;;;;23.83;47.83;101820.06;4889460;28;120484;-83
2022/07/11 11:29:23;;;;;;;3.78;1.08;;;;;;;23.84;46.30;101818.78;4859254;28;120419;-84
2022/07/11 11:31:51;;;;;;;2.25;0.90;;;;;;;23.76;46.65;101803.78;4876057;28;121459;-83